Time;durP1;ratioP1;P1;durP2;ratioP2;P2;SDS_P1;SDS_P2;PMS_P1;PMS_P2;Temp;Humidity;BMP_temperature;BMP_pressure;BME280_temperature;BME280_humidity;BME280_pressure;Samples;Min_cycle;Max_cycle;Signal;HPM_P1;HPM_P2
2023/04/15 00:01:22;;;;;;;1.88;1.50;;;;;;;;;;5058663;28;20031;-82
2023/04/15 00:03:51;;;;;;;2.10;1.65;;;;;;;;;;5058895;28;20107;-82
2023/04/15 00:06:16;;;;;;;2.45;1.55;;;;;;;;;;5058543;28;20499;-83
2023/04/15 00:08:42;;;;;;;1.67;1.50;;;;;;;;;;5093285;28;20078;-82
2023/04/15 00:11:07;;;;;;;3.33;1.60;;;;;;;;;;5075499;28;20077;-82
2023/04/15 00:13:33;;;;;;;1.77;1.35;;;;;;;;;;5058408;28;20039;-82
2023/04/15 00:15:59;;;;;;;1.77;1.58;;;;;;;;;;5058550;28;20028;-81
2023/04/15 00:18:25;;;;;;;3.05;1.50;;;;;;;;;;5058700;28;20028;-81
2023/04/15 00:20:51;;;;;;;3.03;1.63;;;;;;;;;;5075505;28;20024;-81
2023/04/15 00:23:16;;;;;;;1.55;1.35;;;;;;;;;;5075791;28;20039;-81
2023/04/15 00:25:42;;;;;;;4.72;1.52;;;;;;;;;;5075240;28;20462;-82
2023/04/15 00:28:08;;;;;;;4.07;1.40;;;;;;;;;;5093486;28;20032;-81
2023/04/15 00:30:33;;;;;;;1.38;1.27;;;;;;;;;;5075681;28;20039;-82
2023/04/15 00:33:01;;;;;;;2.15;1.48;;;;;;;;;;5075123;28;20101;-81
2023/04/15 00:35:26;;;;;;;3.83;1.65;;;;;;;;;;5093519;28;20024;-81
2023/04/15 00:37:51;;;;;;;2.55;1.48;;;;;;;;;;5058459;28;20036;-82
2023/04/15 00:40:18;;;;;;;4.32;1.50;;;;;;;;;;5093423;28;20111;-82
2023/04/15 00:42:44;;;;;;;3.17;1.48;;;;;;;;;;5075049;28;20024;-81
2023/04/15 00:45:10;;;;;;;3.40;1.60;;;;;;;;;;5058800;28;20540;-82
2023/04/15 00:47:36;;;;;;;1.83;1.35;;;;;;;;;;5075698;28;20463;-82
2023/04/15 00:50:02;;;;;;;2.75;1.52;;;;;;;;;;5076802;28;20023;-82
2023/04/15 00:52:27;;;;;;;2.85;1.60;;;;;;;;;;5074950;28;20471;-82
2023/04/15 00:54:54;;;;;;;2.20;1.60;;;;;;;;;;5075095;28;20081;-82
2023/04/15 00:57:21;;;;;;;2.05;1.40;;;;;;;;;;5078044;28;20034;-82
2023/04/15 00:59:46;;;;;;;2.85;1.17;;;;;;;;;;5078846;28;20385;-82
2023/04/15 01:02:11;;;;;;;2.78;1.50;;;;;;;;;;5096676;28;20024;-82
2023/04/15 01:04:37;;;;;;;3.38;1.90;;;;;;;;;;5096815;28;20024;-81
2023/04/15 01:07:02;;;;;;;1.95;1.42;;;;;;;;;;5079035;28;20059;-81
2023/04/15 01:09:28;;;;;;;2.55;1.70;;;;;;;;;;5097076;28;20599;-82
2023/04/15 01:11:53;;;;;;;2.53;1.50;;;;;;;;;;5097509;28;20482;-81
2023/04/15 01:14:18;;;;;;;2.28;1.60;;;;;;;;;;5096552;28;20059;-82
2023/04/15 01:16:44;;;;;;;2.80;1.50;;;;;;;;;;5096870;28;20032;-81
2023/04/15 01:19:10;;;;;;;1.52;1.33;;;;;;;;;;5079129;28;20536;-81
2023/04/15 01:21:37;;;;;;;2.30;1.40;;;;;;;;;;5097732;28;20424;-81
2023/04/15 01:24:08;;;;;;;2.03;1.50;;;;;;;;;;5098146;28;20058;-81
2023/04/15 01:26:36;;;;;;;4.28;1.60;;;;;;;;;;5079683;28;20474;-82
2023/04/15 01:29:02;;;;;;;2.38;1.50;;;;;;;;;;5090522;28;20039;-83
2023/04/15 01:31:27;;;;;;;3.10;1.67;;;;;;;;;;5104262;28;20382;-83
2023/04/15 01:33:52;;;;;;;2.78;1.50;;;;;;;;;;5087209;28;20031;-83
2023/04/15 01:36:18;;;;;;;4.28;1.55;;;;;;;;;;5067361;28;20468;-82
2023/04/15 01:38:43;;;;;;;2.17;1.42;;;;;;;;;;5100557;28;20063;-83
2023/04/15 01:41:09;;;;;;;2.08;1.58;;;;;;;;;;5104267;28;20040;-82
2023/04/15 01:43:36;;;;;;;2.97;1.30;;;;;;;;;;5103069;28;20028;-82
2023/04/15 01:46:01;;;;;;;1.63;1.52;;;;;;;;;;5082448;28;20020;-82
2023/04/15 01:48:27;;;;;;;2.20;1.48;;;;;;;;;;5079825;28;20384;-81
2023/04/15 01:50:53;;;;;;;1.85;1.20;;;;;;;;;;5096948;28;20036;-81
2023/04/15 01:53:19;;;;;;;1.60;1.50;;;;;;;;;;5078555;28;20071;-81
2023/04/15 01:55:45;;;;;;;2.45;1.30;;;;;;;;;;5061175;28;20032;-82
2023/04/15 01:58:10;;;;;;;6.13;1.40;;;;;;;;;;5095828;28;20061;-81
2023/04/15 02:00:36;;;;;;;4.18;1.50;;;;;;;;;;5077484;28;20488;-81
2023/04/15 02:03:01;;;;;;;3.83;1.27;;;;;;;;;;5060594;28;20042;-81
2023/04/15 02:05:26;;;;;;;1.95;1.30;;;;;;;;;;5077597;28;20082;-81
2023/04/15 02:07:52;;;;;;;2.05;1.27;;;;;;;;;;5076699;28;20038;-81
2023/04/15 02:10:18;;;;;;;1.90;1.40;;;;;;;;;;5095681;28;20036;-82
2023/04/15 02:12:43;;;;;;;1.70;1.33;;;;;;;;;;5077030;28;20077;-81
2023/04/15 02:15:09;;;;;;;6.90;1.40;;;;;;;;;;5077178;28;20442;-81
2023/04/15 02:17:36;;;;;;;1.48;1.25;;;;;;;;;;5077185;28;20059;-82
2023/04/15 02:20:03;;;;;;;1.92;1.25;;;;;;;;;;5077423;28;20028;-82
2023/04/15 02:22:29;;;;;;;2.70;1.40;;;;;;;;;;5077926;28;20042;-81
2023/04/15 02:24:54;;;;;;;2.17;1.50;;;;;;;;;;5094869;28;20028;-82
2023/04/15 02:27:21;;;;;;;2.13;1.30;;;;;;;;;;5077262;28;20039;-81
2023/04/15 02:29:46;;;;;;;1.75;1.20;;;;;;;;;;5077001;28;20035;-81
2023/04/15 02:32:12;;;;;;;1.52;1.33;;;;;;;;;;5094810;28;20103;-81
2023/04/15 02:34:41;;;;;;;1.45;1.30;;;;;;;;;;5060062;28;20116;-82
2023/04/15 02:37:10;;;;;;;2.13;1.40;;;;;;;;;;5077284;28;20082;-83
2023/04/15 02:39:35;;;;;;;3.00;1.30;;;;;;;;;;5076800;28;20096;-82
2023/04/15 02:42:01;;;;;;;2.83;1.38;;;;;;;;;;5094747;28;20131;-82
2023/04/15 02:44:27;;;;;;;1.38;1.23;;;;;;;;;;5094518;28;20077;-81
2023/04/15 02:46:53;;;;;;;1.88;1.30;;;;;;;;;;5077239;28;20032;-82
2023/04/15 02:49:22;;;;;;;1.40;1.10;;;;;;;;;;5078070;28;20039;-83
2023/04/15 02:51:48;;;;;;;1.92;1.20;;;;;;;;;;5060857;28;20039;-82
2023/04/15 02:54:15;;;;;;;3.08;1.80;;;;;;;;;;5096193;28;20039;-82
2023/04/15 02:56:41;;;;;;;2.65;1.20;;;;;;;;;;5060734;28;20077;-83
2023/04/15 02:59:06;;;;;;;2.25;1.70;;;;;;;;;;5094845;28;20028;-82
2023/04/15 03:01:31;;;;;;;1.35;1.15;;;;;;;;;;5094791;28;20035;-82
2023/04/15 03:03:57;;;;;;;1.60;1.35;;;;;;;;;;5094481;28;20028;-82
2023/04/15 03:06:23;;;;;;;1.58;1.05;;;;;;;;;;5094001;28;20082;-82
2023/04/15 03:08:50;;;;;;;1.40;1.30;;;;;;;;;;5094149;28;20036;-84
2023/04/15 03:11:15;;;;;;;2.47;1.20;;;;;;;;;;5060047;28;20569;-81
2023/04/15 03:13:42;;;;;;;1.40;1.20;;;;;;;;;;5094107;28;20111;-82
2023/04/15 03:16:08;;;;;;;1.77;1.30;;;;;;;;;;5076434;28;20023;-81
2023/04/15 03:18:33;;;;;;;1.25;1.10;;;;;;;;;;5075619;28;20032;-83
2023/04/15 03:20:58;;;;;;;2.63;1.20;;;;;;;;;;5075959;28;20058;-83
2023/04/15 03:23:24;;;;;;;1.48;1.20;;;;;;;;;;5075884;28;20111;-82
2023/04/15 03:25:49;;;;;;;1.50;1.40;;;;;;;;;;5094007;28;20478;-82
2023/04/15 03:28:15;;;;;;;1.63;1.08;;;;;;;;;;5093638;28;20119;-82
2023/04/15 03:30:40;;;;;;;1.67;1.02;;;;;;;;;;5075588;28;20056;-82
2023/04/15 03:33:06;;;;;;;2.75;1.30;;;;;;;;;;5076169;28;20035;-82
2023/04/15 03:35:31;;;;;;;3.42;1.58;;;;;;;;;;5075645;28;20069;-81
2023/04/15 03:37:57;;;;;;;2.80;1.30;;;;;;;;;;5075644;28;20386;-81
2023/04/15 03:40:22;;;;;;;3.08;1.50;;;;;;;;;;5093863;28;20062;-82
2023/04/15 03:42:47;;;;;;;1.38;1.20;;;;;;;;;;5076142;28;20139;-82
2023/04/15 03:45:13;;;;;;;1.88;1.30;;;;;;;;;;5075332;28;20028;-81
2023/04/15 03:47:38;;;;;;;2.22;1.23;;;;;;;;;;5058555;28;20035;-82
2023/04/15 03:50:04;;;;;;;2.28;1.15;;;;;;;;;;5075223;28;20394;-83
2023/04/15 03:52:30;;;;;;;2.10;1.10;;;;;;;;;;5075829;28;20042;-82
2023/04/15 03:54:55;;;;;;;1.30;1.20;;;;;;;;;;5075410;28;20039;-83
2023/04/15 03:57:21;;;;;;;1.30;1.20;;;;;;;;;;5094158;28;20020;-82
2023/04/15 03:59:46;;;;;;;1.45;1.27;;;;;;;;;;5093650;28;20024;-83
2023/04/15 04:02:11;;;;;;;3.38;1.33;;;;;;;;;;5093717;28;20039;-83
2023/04/15 04:04:37;;;;;;;1.38;1.20;;;;;;;;;;5093788;28;20085;-82
2023/04/15 04:07:02;;;;;;;2.20;1.42;;;;;;;;;;5075125;28;20087;-82
2023/04/15 04:09:27;;;;;;;2.72;1.40;;;;;;;;;;5093368;28;20378;-82
2023/04/15 04:11:53;;;;;;;1.35;1.25;;;;;;;;;;5075715;28;20039;-82
2023/04/15 04:14:18;;;;;;;1.52;1.15;;;;;;;;;;5058535;28;20036;-82
2023/04/15 04:16:44;;;;;;;1.83;1.20;;;;;;;;;;5075581;28;20413;-82
2023/04/15 04:19:09;;;;;;;2.10;1.40;;;;;;;;;;5075291;28;20036;-82
2023/04/15 04:21:35;;;;;;;2.13;1.38;;;;;;;;;;5093831;28;20024;-82
2023/04/15 04:24:01;;;;;;;1.30;1.20;;;;;;;;;;5093262;28;20028;-82
2023/04/15 04:26:26;;;;;;;1.58;1.10;;;;;;;;;;5075255;28;20475;-82
2023/04/15 04:28:52;;;;;;;1.65;1.08;;;;;;;;;;5058362;28;20044;-82
2023/04/15 04:31:17;;;;;;;1.58;1.30;;;;;;;;;;5078736;28;20043;-82
2023/04/15 04:33:43;;;;;;;1.30;1.15;;;;;;;;;;5079474;28;20047;-81
2023/04/15 04:36:08;;;;;;;1.40;1.30;;;;;;;;;;5062295;28;20078;-81
2023/04/15 04:38:34;;;;;;;1.30;1.10;;;;;;;;;;5097113;28;20558;-81
2023/04/15 04:40:59;;;;;;;1.50;1.20;;;;;;;;;;5045596;28;20063;-81
2023/04/15 04:43:25;;;;;;;2.17;1.45;;;;;;;;;;5096944;28;20059;-83
2023/04/15 04:45:50;;;;;;;1.38;1.17;;;;;;;;;;5078652;28;20085;-81
2023/04/15 04:48:16;;;;;;;1.73;1.00;;;;;;;;;;5078463;28;20028;-81
2023/04/15 04:50:42;;;;;;;1.58;0.93;;;;;;;;;;5096759;28;20493;-82
2023/04/15 04:53:07;;;;;;;1.52;1.10;;;;;;;;;;5079063;28;20028;-82
2023/04/15 04:55:35;;;;;;;1.02;1.00;;;;;;;;;;5078768;28;20024;-81
2023/04/15 04:58:01;;;;;;;1.10;0.98;;;;;;;;;;5078607;28;20542;-81
2023/04/15 05:00:26;;;;;;;3.33;1.30;;;;;;;;;;5078412;28;20127;-81
2023/04/15 05:02:52;;;;;;;1.15;1.05;;;;;;;;;;5078321;28;20079;-82
2023/04/15 05:05:17;;;;;;;1.45;1.17;;;;;;;;;;5078300;28;20099;-82
2023/04/15 05:07:43;;;;;;;1.30;1.15;;;;;;;;;;5096690;28;20020;-82
2023/04/15 05:10:09;;;;;;;1.17;1.08;;;;;;;;;;5078324;28;20042;-82
2023/04/15 05:12:36;;;;;;;1.35;1.20;;;;;;;;;;5061486;28;20032;-81
2023/04/15 05:15:01;;;;;;;1.55;1.10;;;;;;;;;;5078272;28;20031;-83
2023/04/15 05:17:27;;;;;;;1.20;1.10;;;;;;;;;;5078259;28;20028;-82
2023/04/15 05:19:52;;;;;;;1.13;1.10;;;;;;;;;;5078119;28;20024;-80
2023/04/15 05:22:18;;;;;;;1.80;1.30;;;;;;;;;;5096281;28;20115;-80
2023/04/15 05:24:43;;;;;;;1.58;1.20;;;;;;;;;;5060889;28;20032;-80
2023/04/15 05:27:10;;;;;;;1.58;1.10;;;;;;;;;;5095449;28;20498;-80
2023/04/15 05:29:35;;;;;;;1.73;1.27;;;;;;;;;;5095391;28;20050;-80
2023/04/15 05:32:01;;;;;;;5.00;1.60;;;;;;;;;;5060602;28;20119;-80
2023/04/15 05:34:26;;;;;;;2.72;1.33;;;;;;;;;;5060369;28;20105;-80
2023/04/15 05:36:51;;;;;;;2.55;1.40;;;;;;;;;;5076972;28;20034;-80
2023/04/15 05:39:17;;;;;;;1.80;1.17;;;;;;;;;;5095214;28;20378;-80
2023/04/15 05:41:43;;;;;;;1.65;1.27;;;;;;;;;;5059362;28;20035;-80
2023/04/15 05:44:08;;;;;;;2.20;1.25;;;;;;;;;;5077203;28;20034;-80
2023/04/15 05:46:33;;;;;;;1.33;1.10;;;;;;;;;;5077092;28;20024;-81
2023/04/15 05:48:59;;;;;;;1.98;1.20;;;;;;;;;;5060756;28;20028;-81
2023/04/15 05:51:25;;;;;;;1.70;1.10;;;;;;;;;;5095677;28;20589;-80
2023/04/15 05:53:50;;;;;;;1.52;1.10;;;;;;;;;;5095850;28;20032;-80
2023/04/15 05:56:16;;;;;;;1.38;1.17;;;;;;;;;;5060753;28;20085;-80
2023/04/15 05:58:41;;;;;;;3.33;1.60;;;;;;;;;;5060792;28;20024;-81
2023/04/15 06:01:07;;;;;;;32.10;1.70;;;;;;;;;;5077304;28;20032;-80
2023/04/15 06:03:33;;;;;;;2.13;1.35;;;;;;;;;;5095624;28;20441;-82
2023/04/15 06:05:59;;;;;;;1.42;1.20;;;;;;;;;;5088161;28;20503;-82
2023/04/15 06:08:25;;;;;;;1.73;1.20;;;;;;;;;;5057610;28;20024;-83
2023/04/15 06:10:50;;;;;;;2.22;1.50;;;;;;;;;;5074520;28;20526;-81
2023/04/15 06:13:16;;;;;;;9.60;1.23;;;;;;;;;;5074421;28;20021;-81
2023/04/15 06:15:41;;;;;;;2.38;1.00;;;;;;;;;;5074463;28;20475;-81
2023/04/15 06:18:07;;;;;;;5.68;1.35;;;;;;;;;;5073334;28;20499;-82
2023/04/15 06:20:32;;;;;;;1.50;1.35;;;;;;;;;;5074359;28;20159;-81
2023/04/15 06:22:58;;;;;;;2.33;1.50;;;;;;;;;;5073187;28;20040;-81
2023/04/15 06:25:23;;;;;;;3.22;1.50;;;;;;;;;;5072865;28;20391;-80
2023/04/15 06:27:48;;;;;;;2.45;1.58;;;;;;;;;;5072936;28;20036;-81
2023/04/15 06:30:14;;;;;;;1.83;1.63;;;;;;;;;;5056222;28;20028;-81
2023/04/15 06:32:39;;;;;;;4.55;1.50;;;;;;;;;;5056303;28;20075;-81
2023/04/15 06:35:05;;;;;;;2.00;1.70;;;;;;;;;;5073965;28;20390;-80
2023/04/15 06:37:31;;;;;;;4.05;1.75;;;;;;;;;;5072902;28;20032;-80
2023/04/15 06:39:57;;;;;;;3.47;1.55;;;;;;;;;;5073919;28;20025;-80
2023/04/15 06:42:22;;;;;;;3.15;1.50;;;;;;;;;;5073757;28;20500;-81
2023/04/15 06:44:47;;;;;;;2.50;1.80;;;;;;;;;;5055970;28;20024;-81
2023/04/15 06:47:13;;;;;;;2.70;1.70;;;;;;;;;;5073709;28;20028;-81
2023/04/15 06:49:39;;;;;;;4.30;1.88;;;;;;;;;;5072577;28;20110;-82
2023/04/15 06:52:04;;;;;;;6.35;2.00;;;;;;;;;;5072420;28;20435;-82
2023/04/15 06:54:30;;;;;;;2.60;2.00;;;;;;;;;;5072361;28;20031;-82
2023/04/15 06:56:55;;;;;;;5.28;1.70;;;;;;;;;;5074519;28;20105;-80
2023/04/15 06:59:21;;;;;;;1.92;1.70;;;;;;;;;;5074481;28;20027;-81
2023/04/15 07:01:46;;;;;;;2.20;1.60;;;;;;;;;;5072969;28;20033;-82
2023/04/15 07:04:12;;;;;;;3.03;1.88;;;;;;;;;;5074264;28;20060;-82
2023/04/15 07:06:37;;;;;;;1.80;1.70;;;;;;;;;;5072934;28;20484;-82
2023/04/15 07:09:03;;;;;;;2.30;1.90;;;;;;;;;;5073884;28;20028;-82
2023/04/15 07:11:29;;;;;;;2.08;1.80;;;;;;;;;;5073947;28;20054;-82
2023/04/15 07:13:55;;;;;;;2.15;1.90;;;;;;;;;;5072526;28;20054;-83
2023/04/15 07:16:20;;;;;;;1.55;1.40;;;;;;;;;;5072715;28;20032;-83
2023/04/15 07:18:46;;;;;;;2.22;1.70;;;;;;;;;;5073806;28;20024;-83
2023/04/15 07:21:11;;;;;;;1.90;1.70;;;;;;;;;;5056598;28;20043;-83
2023/04/15 07:23:37;;;;;;;5.63;1.90;;;;;;;;;;5073483;28;20089;-82
2023/04/15 07:26:02;;;;;;;1.60;1.50;;;;;;;;;;5073935;28;20479;-80
2023/04/15 07:28:28;;;;;;;3.55;1.90;;;;;;;;;;5072636;28;20040;-81
2023/04/15 07:30:54;;;;;;;4.13;1.77;;;;;;;;;;5073792;28;20028;-82
2023/04/15 07:33:19;;;;;;;1.95;1.75;;;;;;;;;;5073775;28;20032;-81
2023/04/15 07:35:45;;;;;;;4.13;1.80;;;;;;;;;;5073665;28;20024;-81
2023/04/15 07:38:13;;;;;;;4.20;1.67;;;;;;;;;;5055889;28;20483;-81
2023/04/15 07:40:39;;;;;;;1.95;1.60;;;;;;;;;;5056595;28;20121;-82
2023/04/15 07:43:05;;;;;;;4.35;1.90;;;;;;;;;;5039876;28;20067;-82
2023/04/15 07:45:31;;;;;;;3.45;1.70;;;;;;;;;;5039020;28;20039;-82
2023/04/15 07:47:57;;;;;;;2.90;1.70;;;;;;;;;;5075556;28;20028;-81
2023/04/15 07:50:23;;;;;;;2.05;1.88;;;;;;;;;;5059137;28;20400;-81
2023/04/15 07:52:50;;;;;;;3.88;1.60;;;;;;;;;;5059287;28;20485;-81
2023/04/15 07:55:18;;;;;;;4.60;1.70;;;;;;;;;;5075526;28;20542;-81
2023/04/15 07:57:44;;;;;;;1.65;1.38;;;;;;;;;;5093664;28;20082;-83
2023/04/15 08:00:10;;;;;;;1.73;1.60;;;;;;;;;;5075702;28;20024;-87
2023/04/15 08:02:36;;;;;;;2.95;1.85;;;;;;;;;;5093547;28;20028;-82
2023/04/15 08:05:03;;;;;;;2.85;1.88;;;;;;;;;;5078762;28;20111;-84
2023/04/15 08:07:28;;;;;;;2.72;2.10;;;;;;;;;;5076360;28;20040;-83
2023/04/15 08:09:54;;;;;;;6.35;2.40;;;;;;;;;;5064789;28;20089;-84
2023/04/15 08:12:19;;;;;;;3.70;2.22;;;;;;;;;;5082424;28;20042;-83
2023/04/15 08:14:45;;;;;;;5.85;2.65;;;;;;;;;;5048992;28;20032;-85
2023/04/15 08:17:10;;;;;;;4.97;1.98;;;;;;;;;;5045313;28;20202;-86
2023/04/15 08:19:36;;;;;;;13.93;2.30;;;;;;;;;;5056095;28;20024;-85
2023/04/15 08:22:01;;;;;;;6.82;2.85;;;;;;;;;;5101453;28;20036;-86
2023/04/15 08:24:27;;;;;;;14.20;3.95;;;;;;;;;;5079612;28;20016;-87
2023/04/15 08:26:52;;;;;;;10.70;3.50;;;;;;;;;;5087354;28;20024;-87
2023/04/15 08:29:17;;;;;;;14.60;4.05;;;;;;;;;;5070588;28;20029;-86
2023/04/15 08:31:44;;;;;;;15.32;4.15;;;;;;;;;;5049090;28;20032;-86
2023/04/15 08:34:13;;;;;;;10.43;3.72;;;;;;;;;;5064414;28;20024;-86
2023/04/15 08:36:39;;;;;;;11.75;3.42;;;;;;;;;;5048375;28;20028;-87
2023/04/15 08:39:04;;;;;;;11.10;3.47;;;;;;;;;;5082802;28;20426;-85
2023/04/15 08:41:46;;;;;;;5.65;2.50;;;;;;;;;;5063963;28;20036;-88
2023/04/15 08:44:13;;;;;;;132.98;21.33;;;;;;;;;;5065812;28;20027;-90
2023/04/15 08:46:41;;;;;;;73.70;13.48;;;;;;;;;;5066686;28;20435;-89
2023/04/15 08:49:09;;;;;;;34.55;9.13;;;;;;;;;;5064762;28;20100;-91
2023/04/15 08:51:35;;;;;;;34.55;8.25;;;;;;;;;;5080531;28;20036;-89
2023/04/15 08:54:01;;;;;;;30.23;5.53;;;;;;;;;;5045798;28;20033;-86
2023/04/15 08:56:27;;;;;;;17.98;4.50;;;;;;;;;;5046187;28;20032;-89
2023/04/15 08:58:52;;;;;;;14.40;4.43;;;;;;;;;;5080388;28;20024;-91
2023/04/15 09:01:18;;;;;;;13.55;3.53;;;;;;;;;;5061968;28;20024;-89
2023/04/15 09:03:43;;;;;;;11.60;3.33;;;;;;;;;;5062394;28;20027;-88
2023/04/15 09:06:09;;;;;;;13.35;2.80;;;;;;;;;;5061623;28;20478;-87
2023/04/15 09:08:35;;;;;;;9.20;2.50;;;;;;;;;;5080779;28;20064;-85
2023/04/15 09:11:03;;;;;;;13.27;2.90;;;;;;;;;;5062025;28;20127;-86
2023/04/15 09:13:29;;;;;;;10.70;2.65;;;;;;;;;;5079848;28;20131;-87
2023/04/15 09:15:56;;;;;;;6.85;2.25;;;;;;;;;;5043920;28;20115;-87
2023/04/15 09:18:29;;;;;;;10.68;2.72;;;;;;;;;;5060540;28;20016;-88
2023/04/15 09:20:58;;;;;;;9.18;2.33;;;;;;;;;;5060659;28;20028;-85
2023/04/15 09:23:23;;;;;;;7.30;2.10;;;;;;;;;;5042509;28;20036;-85
2023/04/15 09:25:49;;;;;;;11.15;2.22;;;;;;;;;;5042249;28;20037;-87
2023/04/15 09:28:22;;;;;;;4.38;1.88;;;;;;;;;;5042219;28;20048;-86
2023/04/15 09:30:51;;;;;;;6.88;1.80;;;;;;;;;;5058396;28;20048;-86
2023/04/15 09:33:16;;;;;;;10.10;1.77;;;;;;;;;;5058723;28;20074;-86
2023/04/15 09:35:55;;;;;;;7.68;1.88;;;;;;;;;;5043068;28;20421;-87
2023/04/15 09:38:21;;;;;;;3.95;1.70;;;;;;;;;;5058449;28;20039;-89
2023/04/15 09:40:46;;;;;;;4.05;1.60;;;;;;;;;;5059527;28;20028;-90
2023/04/15 09:43:12;;;;;;;8.63;1.60;;;;;;;;;;5083257;28;20048;-90
2023/04/15 09:45:38;;;;;;;4.10;1.50;;;;;;;;;;5048809;28;20028;-89
2023/04/15 09:48:17;;;;;;;2.20;1.30;;;;;;;;;;5045403;28;20032;-85
2023/04/15 09:50:43;;;;;;;2.47;1.30;;;;;;;;;;5063286;28;20024;-86
2023/04/15 09:53:11;;;;;;;1.13;0.93;;;;;;;;;;5062672;28;20025;-86
2023/04/15 09:55:36;;;;;;;4.07;1.25;;;;;;;;;;5081491;28;20582;-87
2023/04/15 09:58:08;;;;;;;3.15;1.20;;;;;;;;;;5043205;28;20063;-87
2023/04/15 10:00:33;;;;;;;3.13;1.08;;;;;;;;;;5058997;28;20024;-85
2023/04/15 10:02:59;;;;;;;2.15;1.20;;;;;;;;;;5058609;28;20025;-87
2023/04/15 10:05:24;;;;;;;2.95;1.30;;;;;;;;;;5076037;28;20055;-86
2023/04/15 10:07:50;;;;;;;7.65;1.65;;;;;;;;;;5041287;28;20040;-84
2023/04/15 10:10:16;;;;;;;4.20;1.20;;;;;;;;;;5075377;28;20135;-85
2023/04/15 10:12:42;;;;;;;5.15;1.23;;;;;;;;;;5040881;28;20085;-85
2023/04/15 10:15:14;;;;;;;5.78;1.48;;;;;;;;;;5075201;28;20039;-85
2023/04/15 10:17:42;;;;;;;2.17;1.50;;;;;;;;;;5040529;28;20038;-85
2023/04/15 10:20:09;;;;;;;2.22;1.10;;;;;;;;;;5057270;28;20028;-85
2023/04/15 10:22:35;;;;;;;5.90;1.13;;;;;;;;;;5057592;28;20391;-83
2023/04/15 10:25:01;;;;;;;7.43;1.38;;;;;;;;;;5057038;28;20028;-83
2023/04/15 10:27:28;;;;;;;2.55;1.30;;;;;;;;;;5040230;28;20020;-84
2023/04/15 10:29:56;;;;;;;3.58;1.60;;;;;;;;;;5056908;28;20392;-83
2023/04/15 10:32:21;;;;;;;4.20;1.40;;;;;;;;;;5074894;28;20028;-83
2023/04/15 10:34:48;;;;;;;2.25;1.30;;;;;;;;;;5056952;28;20034;-83
2023/04/15 10:37:20;;;;;;;1.70;1.40;;;;;;;;;;5056817;28;20475;-82
2023/04/15 10:39:45;;;;;;;2.63;1.15;;;;;;;;;;5057064;28;20020;-81
2023/04/15 10:42:15;;;;;;;1.92;1.27;;;;;;;;;;5040178;28;20090;-81
2023/04/15 10:44:51;;;;;;;1.77;1.20;;;;;;;;;;5056991;28;20471;-86
2023/04/15 10:47:19;;;;;;;2.50;1.20;;;;;;;;;;5048356;28;20024;-86
2023/04/15 10:49:45;;;;;;;2.05;1.13;;;;;;;;;;5043633;28;20042;-86
2023/04/15 10:52:11;;;;;;;3.38;1.20;;;;;;;;;;5076934;28;20039;-85
2023/04/15 10:54:38;;;;;;;2.33;1.20;;;;;;;;;;5060558;28;20032;-84
2023/04/15 10:57:03;;;;;;;2.53;1.27;;;;;;;;;;5059998;28;20080;-86
2023/04/15 10:59:35;;;;;;;3.05;1.40;;;;;;;;;;5076401;28;20024;-85
2023/04/15 11:02:11;;;;;;;3.20;1.38;;;;;;;;;;5076473;28;20023;-85
2023/04/15 11:04:56;;;;;;;3.13;1.10;;;;;;;;;;5076354;28;20053;-84
2023/04/15 11:07:45;;;;;;;1.88;0.93;;;;;;;;;;5059361;28;20044;-84
2023/04/15 11:10:16;;;;;;;1.70;1.00;;;;;;;;;;5076450;28;20394;-85
2023/04/15 11:12:43;;;;;;;1.90;1.10;;;;;;;;;;5076063;28;20042;-85
2023/04/15 11:15:28;;;;;;;1.75;0.98;;;;;;;;;;5059551;28;20024;-85
2023/04/15 11:17:54;;;;;;;2.22;0.90;;;;;;;;;;5094212;28;20028;-83
2023/04/15 11:20:20;;;;;;;2.13;1.30;;;;;;;;;;5059251;28;20039;-83
2023/04/15 11:22:52;;;;;;;1.10;1.00;;;;;;;;;;5076661;28;20085;-82
2023/04/15 11:25:28;;;;;;;1.40;1.10;;;;;;;;;;5059529;28;20028;-87
2023/04/15 11:27:54;;;;;;;3.78;0.85;;;;;;;;;;5094126;28;20073;-85
2023/04/15 11:30:22;;;;;;;0.80;0.80;;;;;;;;;;5056568;28;20437;-81
2023/04/15 11:32:51;;;;;;;5.65;1.10;;;;;;;;;;5057827;28;20032;-82
2023/04/15 11:35:21;;;;;;;4.03;1.00;;;;;;;;;;5090979;28;20073;-82
2023/04/15 11:37:49;;;;;;;5.57;1.90;;;;;;;;;;5075622;28;20039;-82
2023/04/15 11:40:19;;;;;;;3.45;1.15;;;;;;;;;;5058075;28;20035;-82
2023/04/15 11:42:44;;;;;;;2.55;0.90;;;;;;;;;;5060178;28;20105;-85
2023/04/15 11:45:13;;;;;;;3.17;0.90;;;;;;;;;;5059477;28;20052;-84
2023/04/15 11:47:39;;;;;;;5.20;1.10;;;;;;;;;;5077441;28;20051;-82
2023/04/15 11:50:15;;;;;;;2.65;1.10;;;;;;;;;;5094791;28;20020;-85
2023/04/15 11:53:01;;;;;;;1.65;0.98;;;;;;;;;;5090685;28;20037;-84
2023/04/15 11:55:27;;;;;;;2.72;1.30;;;;;;;;;;5091766;28;20111;-84
2023/04/15 11:58:09;;;;;;;3.70;1.08;;;;;;;;;;5075128;28;20058;-85
2023/04/15 12:00:35;;;;;;;6.53;1.17;;;;;;;;;;5076599;28;20046;-83
2023/04/15 12:03:33;;;;;;;7.05;1.00;;;;;;;;;;5088200;28;20033;-83
2023/04/15 12:06:18;;;;;;;6.25;1.10;;;;;;;;;;5069016;28;20052;-83
2023/04/15 12:09:13;;;;;;;2.47;0.70;;;;;;;;;;5050380;28;20028;-84
2023/04/15 12:11:49;;;;;;;2.97;1.13;;;;;;;;;;5075213;28;20415;-83
2023/04/15 12:14:14;;;;;;;7.72;1.38;;;;;;;;;;5071849;28;20032;-80
2023/04/15 12:16:50;;;;;;;4.97;1.10;;;;;;;;;;5072973;28;20025;-80
2023/04/15 12:19:18;;;;;;;1.95;0.90;;;;;;;;;;5059265;28;20031;-82
2023/04/15 12:21:45;;;;;;;5.15;0.93;;;;;;;;;;5075871;28;20028;-80
2023/04/15 12:24:11;;;;;;;3.25;1.00;;;;;;;;;;5096654;28;20386;-81
2023/04/15 12:26:42;;;;;;;2.60;1.00;;;;;;;;;;5060524;28;20038;-80
2023/04/15 12:29:09;;;;;;;4.53;1.08;;;;;;;;;;5075951;28;20474;-80
2023/04/15 12:31:37;;;;;;;1.02;0.95;;;;;;;;;;5042291;28;20461;-81
2023/04/15 12:34:06;;;;;;;3.53;1.00;;;;;;;;;;5076288;28;20439;-83
2023/04/15 12:36:35;;;;;;;4.53;1.00;;;;;;;;;;5075369;28;20082;-82
2023/04/15 12:39:03;;;;;;;3.20;1.00;;;;;;;;;;5059466;28;20497;-88
2023/04/15 12:41:28;;;;;;;2.05;1.00;;;;;;;;;;5042574;28;20453;-86
2023/04/15 12:43:53;;;;;;;1.58;0.95;;;;;;;;;;5094524;28;20032;-87
2023/04/15 12:46:19;;;;;;;1.15;0.77;;;;;;;;;;5060900;28;20109;-80
2023/04/15 12:48:45;;;;;;;5.10;0.80;;;;;;;;;;5093741;28;20028;-81
2023/04/15 12:51:10;;;;;;;4.32;0.80;;;;;;;;;;5076889;28;20043;-80
2023/04/15 12:53:36;;;;;;;4.18;1.00;;;;;;;;;;5080567;28;20032;-87
2023/04/15 12:56:01;;;;;;;2.17;0.90;;;;;;;;;;5079428;28;20380;-83
2023/04/15 12:58:27;;;;;;;2.78;1.08;;;;;;;;;;5064191;28;20020;-83
2023/04/15 13:00:52;;;;;;;2.58;1.08;;;;;;;;;;5078822;28;20500;-83
2023/04/15 13:03:18;;;;;;;2.17;1.02;;;;;;;;;;5081064;28;20028;-81
2023/04/15 13:05:43;;;;;;;1.98;1.20;;;;;;;;;;5097945;28;20097;-82
2023/04/15 13:08:08;;;;;;;4.45;1.00;;;;;;;;;;5079274;28;20038;-78
2023/04/15 13:10:37;;;;;;;1.85;0.95;;;;;;;;;;5078703;28;20032;-78
2023/04/15 13:13:03;;;;;;;6.80;1.15;;;;;;;;;;5055777;28;20031;-78
2023/04/15 13:15:28;;;;;;;1.00;0.80;;;;;;;;;;5076400;28;20078;-80
2023/04/15 13:17:54;;;;;;;1.00;0.75;;;;;;;;;;5092010;28;20036;-79
2023/04/15 13:20:20;;;;;;;2.80;1.00;;;;;;;;;;5081135;28;20032;-87
2023/04/15 13:22:45;;;;;;;2.78;0.80;;;;;;;;;;5079060;28;20107;-90
2023/04/15 13:25:11;;;;;;;1.08;0.90;;;;;;;;;;5060540;28;20123;-88
2023/04/15 13:27:36;;;;;;;3.50;0.75;;;;;;;;;;5075370;28;20139;-88
2023/04/15 13:30:03;;;;;;;1.40;0.70;;;;;;;;;;5075731;28;20455;-88
2023/04/15 13:32:28;;;;;;;6.13;1.00;;;;;;;;;;5079022;28;20036;-86
2023/04/15 13:34:55;;;;;;;2.60;0.77;;;;;;;;;;5058594;28;20167;-87
2023/04/15 13:37:28;;;;;;;2.65;0.80;;;;;;;;;;5044259;28;20510;-87
2023/04/15 13:39:54;;;;;;;0.68;0.68;;;;;;;;;;5061862;28;20047;-91
2023/04/15 13:42:20;;;;;;;3.35;1.05;;;;;;;;;;5064422;28;20082;-90
2023/04/15 13:44:58;;;;;;;2.25;0.85;;;;;;;;;;5082930;28;20471;-92
2023/04/15 13:47:23;;;;;;;1.02;0.80;;;;;;;;;;5067622;28;20097;-89
2023/04/15 13:49:49;;;;;;;5.97;0.80;;;;;;;;;;5067551;28;20036;-92
2023/04/15 13:52:14;;;;;;;0.93;0.80;;;;;;;;;;5045571;28;20119;-84
2023/04/15 13:54:40;;;;;;;1.17;0.90;;;;;;;;;;5079048;28;20042;-81
2023/04/15 13:57:05;;;;;;;0.70;0.70;;;;;;;;;;5094910;28;20040;-81
2023/04/15 13:59:34;;;;;;;1.98;0.88;;;;;;;;;;5094931;28;20028;-81
2023/04/15 14:01:59;;;;;;;0.90;0.75;;;;;;;;;;5059107;28;20028;-81
2023/04/15 14:04:25;;;;;;;0.70;0.70;;;;;;;;;;5076184;28;20036;-80
2023/04/15 14:06:52;;;;;;;2.25;0.73;;;;;;;;;;5094346;28;20125;-80
2023/04/15 14:09:18;;;;;;;0.73;0.73;;;;;;;;;;5043563;28;20482;-79
2023/04/15 14:11:43;;;;;;;1.90;0.80;;;;;;;;;;5076282;28;20046;-79
2023/04/15 14:14:09;;;;;;;1.13;0.77;;;;;;;;;;5076342;28;20028;-80
2023/04/15 14:16:34;;;;;;;2.30;0.60;;;;;;;;;;5074512;28;20067;-78
2023/04/15 14:19:01;;;;;;;1.17;0.70;;;;;;;;;;5073740;28;20029;-78
2023/04/15 14:21:30;;;;;;;2.47;0.80;;;;;;;;;;5022253;28;20415;-79
2023/04/15 14:23:56;;;;;;;0.65;0.57;;;;;;;;;;5087471;28;20042;-78
2023/04/15 14:26:21;;;;;;;1.73;0.70;;;;;;;;;;5057743;28;20032;-85
2023/04/15 14:28:47;;;;;;;2.13;0.80;;;;;;;;;;5094781;28;20131;-83
2023/04/15 14:31:13;;;;;;;1.35;0.77;;;;;;;;;;5056689;28;20103;-84
2023/04/15 14:33:38;;;;;;;2.05;0.80;;;;;;;;;;5076863;28;20058;-89
2023/04/15 14:36:04;;;;;;;0.85;0.65;;;;;;;;;;5077520;28;20082;-88
2023/04/15 14:38:30;;;;;;;4.68;0.80;;;;;;;;;;5077034;28;20482;-86
2023/04/15 14:40:55;;;;;;;0.70;0.70;;;;;;;;;;5094870;28;20024;-87